Time;durP1;ratioP1;P1;durP2;ratioP2;P2;SDS_P1;SDS_P2;PMS_P1;PMS_P2;Temp;Humidity;BMP_temperature;BMP_pressure;BME280_temperature;BME280_humidity;BME280_pressure;Samples;Min_cycle;Max_cycle;Signal;HPM_P1;HPM_P2
2023/09/06 00:00:45;;;;;;;21.27;13.40;;;;;;;22.71;75.30;101346.34;7358631;19;20014;-60
2023/09/06 00:03:14;;;;;;;18.55;11.80;;;;;;;22.69;75.13;101340.38;7358891;19;20755;-54
2023/09/06 00:05:41;;;;;;;18.33;11.60;;;;;;;22.67;75.59;101339.75;7363212;19;20145;-58
2023/09/06 00:08:12;;;;;;;17.98;11.82;;;;;;;22.65;76.22;101347.22;7358183;19;20014;-59
2023/09/06 00:10:40;;;;;;;19.15;12.85;;;;;;;22.62;76.28;101356.50;7353752;19;20018;-59
2023/09/06 00:13:08;;;;;;;18.95;11.40;;;;;;;22.59;75.39;101354.28;7352385;19;20328;-58
2023/09/06 00:15:36;;;;;;;17.63;11.98;;;;;;;22.55;75.29;101347.72;7355753;19;20036;-59
2023/09/06 00:18:06;;;;;;;17.00;11.32;;;;;;;22.53;75.55;101347.91;7355950;19;20470;-59
2023/09/06 00:20:36;;;;;;;18.33;12.07;;;;;;;22.49;76.19;101346.72;7355651;19;21073;-59
2023/09/06 00:23:05;;;;;;;21.40;12.15;;;;;;;22.46;76.15;101339.09;7358703;19;20018;-59
2023/09/06 00:25:33;;;;;;;17.80;12.10;;;;;;;22.43;76.46;101347.59;7355445;19;20010;-58
2023/09/06 00:28:04;;;;;;;19.55;12.18;;;;;;;22.39;76.20;101348.25;7361245;19;20017;-59
2023/09/06 00:30:31;;;;;;;17.73;11.65;;;;;;;22.33;76.22;101351.78;7359875;19;20030;-59
2023/09/06 00:32:59;;;;;;;20.40;12.13;;;;;;;22.28;76.60;101344.41;7358806;19;20139;-59
2023/09/06 00:35:27;;;;;;;18.90;12.68;;;;;;;22.26;75.55;101349.16;7355801;19;20014;-57
2023/09/06 00:37:56;;;;;;;21.40;12.77;;;;;;;22.25;76.40;101352.06;7350681;19;20026;-59
2023/09/06 00:40:23;;;;;;;18.50;12.40;;;;;;;22.22;75.89;101349.78;7347925;19;20634;-59
2023/09/06 00:42:52;;;;;;;20.77;12.57;;;;;;;22.18;76.44;101352.91;7354314;19;20114;-59
2023/09/06 00:45:25;;;;;;;21.52;13.38;;;;;;;22.18;75.65;101341.38;7360611;19;21027;-59
2023/09/06 00:47:55;;;;;;;21.45;13.85;;;;;;;22.16;75.38;101341.56;7357004;19;20010;-58
2023/09/06 00:50:23;;;;;;;22.98;13.48;;;;;;;22.14;74.91;101345.53;7357456;19;20022;-58
2023/09/06 00:52:53;;;;;;;22.83;14.98;;;;;;;22.15;74.79;101339.09;7354848;19;20014;-59
2023/09/06 00:55:20;;;;;;;23.73;14.80;;;;;;;22.13;74.98;101342.03;7357706;19;21306;-60
2023/09/06 00:57:48;;;;;;;25.38;15.20;;;;;;;22.14;75.24;101340.16;7356020;19;20025;-59
2023/09/06 01:00:19;;;;;;;24.95;16.48;;;;;;;22.14;75.49;101342.84;7362644;19;20048;-59
2023/09/06 01:02:47;;;;;;;25.95;16.63;;;;;;;22.11;75.39;101340.59;7356997;19;20022;-60
2023/09/06 01:05:16;;;;;;;28.40;17.70;;;;;;;22.09;75.90;101348.84;7357174;19;20031;-60
2023/09/06 01:07:47;;;;;;;27.85;16.50;;;;;;;22.02;76.17;101344.56;7358446;19;20086;-59
2023/09/06 01:10:14;;;;;;;27.77;18.05;;;;;;;22.02;76.45;101345.38;7355511;19;20356;-54
2023/09/06 01:12:41;;;;;;;27.73;17.30;;;;;;;22.03;76.81;101343.53;7355105;19;20781;-59
2023/09/06 01:15:10;;;;;;;33.88;18.38;;;;;;;22.01;77.23;101341.06;7357451;19;20047;-58
2023/09/06 01:17:41;;;;;;;27.10;18.80;;;;;;;22.02;76.41;101336.50;7355056;19;20027;-62
2023/09/06 01:20:15;;;;;;;29.65;18.88;;;;;;;22.02;76.86;101344.56;7355805;19;20981;-57
2023/09/06 01:22:51;;;;;;;30.90;17.58;;;;;;;22.00;76.79;101344.75;7359391;19;20018;-62
2023/09/06 01:25:19;;;;;;;29.38;17.42;;;;;;;21.97;77.03;101344.38;7358257;19;20344;-58
2023/09/06 01:27:47;;;;;;;28.00;16.52;;;;;;;21.94;77.27;101336.78;7358896;19;20018;-57
2023/09/06 01:30:14;;;;;;;28.33;16.85;;;;;;;21.95;77.46;101346.44;7357556;19;20026;-60
2023/09/06 01:32:42;;;;;;;24.83;15.50;;;;;;;21.93;77.79;101340.47;7355789;19;20017;-59
2023/09/06 01:35:10;;;;;;;25.40;15.45;;;;;;;21.92;77.19;101345.00;7358641;19;20109;-59
2023/09/06 01:37:37;;;;;;;22.50;14.25;;;;;;;21.87;77.46;101344.00;7356292;19;20019;-60
2023/09/06 01:42:44;;;;;;;21.55;14.35;;;;;;;21.83;77.88;101342.78;7360402;19;20019;-58
2023/09/06 01:45:17;;;;;;;21.77;14.80;;;;;;;21.79;78.05;101342.38;7357682;19;20010;-59
2023/09/06 01:47:46;;;;;;;;;;;;;;;21.76;77.85;101337.44;7354996;19;20596;-55
2023/09/06 01:50:19;;;;;;;20.35;13.40;;;;;;;21.71;77.80;101338.09;7356991;19;20292;-60
2023/09/06 01:52:47;;;;;;;23.27;13.30;;;;;;;21.68;78.29;101333.16;7352950;19;20043;-58
2023/09/06 01:55:15;;;;;;;22.10;14.18;;;;;;;21.68;78.03;101335.03;7354596;19;20019;-58
2023/09/06 01:57:42;;;;;;;19.55;13.32;;;;;;;21.63;77.93;101334.84;7355590;19;20042;-57
2023/09/06 02:02:48;;;;;;;21.27;13.73;;;;;;;21.60;77.62;101343.28;7358261;19;20018;-61
2023/09/06 02:05:15;;;;;;;23.30;13.32;;;;;;;21.53;78.01;101342.50;7358048;19;20708;-59
2023/09/06 02:07:44;;;;;;;20.20;12.98;;;;;;;21.46;78.10;101337.16;7355750;19;20025;-57
2023/09/06 02:10:12;;;;;;;20.45;12.10;;;;;;;21.43;78.41;101350.16;7355708;19;20006;-59
2023/09/06 02:12:39;;;;;;;18.38;12.23;;;;;;;21.41;79.24;101336.97;7347924;19;20011;-59
2023/09/06 02:15:08;;;;;;;25.42;12.10;;;;;;;21.40;79.47;101340.69;7357485;19;20046;-59
2023/09/06 02:17:35;;;;;;;21.85;12.95;;;;;;;21.41;79.34;101345.00;7355012;19;20269;-59
2023/09/06 02:20:17;;;;;;;25.38;13.70;;;;;;;21.43;79.05;101351.00;7358567;19;20018;-59
2023/09/06 02:22:46;;;;;;;22.38;13.00;;;;;;;21.45;79.33;101358.78;7356597;19;20786;-59
2023/09/06 02:25:16;;;;;;;19.60;12.68;;;;;;;21.47;79.67;101367.44;7358163;19;20458;-60
2023/09/06 02:27:43;;;;;;;20.55;13.35;;;;;;;21.51;79.26;101368.66;7354788;19;20011;-59
2023/09/06 02:30:11;;;;;;;19.55;12.93;;;;;;;21.53;78.85;101367.44;7357512;19;20010;-59
2023/09/06 02:32:38;;;;;;;23.63;15.02;;;;;;;21.54;78.95;101361.03;7350804;19;20022;-60
2023/09/06 02:35:07;;;;;;;17.35;12.10;;;;;;;21.53;78.79;101361.25;7353951;19;20019;-59
2023/09/06 02:37:36;;;;;;;25.58;14.68;;;;;;;21.52;79.01;101373.81;7352276;19;20010;-59
2023/09/06 02:42:41;;;;;;;18.85;12.65;;;;;;;21.50;79.14;101372.38;7353502;19;20539;-59
2023/09/06 02:45:09;;;;;;;23.42;13.60;;;;;;;21.48;79.45;101375.28;7354036;19;20018;-61
2023/09/06 02:47:48;;;;;;;24.65;14.10;;;;;;;21.48;79.90;101369.94;7354644;19;20993;-58
2023/09/06 02:50:18;;;;;;;22.02;13.02;;;;;;;21.46;79.93;101374.66;7354574;19;20018;-58
2023/09/06 02:52:45;;;;;;;21.67;13.40;;;;;;;21.46;79.88;101371.16;7353034;19;20044;-59
2023/09/06 02:55:13;;;;;;;18.88;12.32;;;;;;;21.44;80.26;101375.88;7356009;19;20536;-58
2023/09/06 02:57:41;;;;;;;20.48;13.30;;;;;;;21.42;79.83;101370.78;7353361;19;20026;-59
2023/09/06 03:02:52;;;;;;;20.10;12.52;;;;;;;21.39;80.12;101359.63;7349966;19;20030;-61
2023/09/06 03:05:20;;;;;;;17.35;12.30;;;;;;;21.37;79.50;101364.41;7355346;19;20747;-58
2023/09/06 03:07:48;;;;;;;18.73;11.77;;;;;;;21.37;79.87;101356.34;7358449;19;20710;-61
2023/09/06 03:10:19;;;;;;;21.70;12.65;;;;;;;21.34;79.24;101352.22;7354317;19;20154;-60
2023/09/06 03:12:48;;;;;;;22.05;13.68;;;;;;;21.32;78.99;101349.78;7353446;19;22052;-62
2023/09/06 03:15:15;;;;;;;23.55;14.13;;;;;;;21.30;78.84;101351.00;7347907;19;20018;-58
2023/09/06 03:17:46;;;;;;;22.80;14.05;;;;;;;21.30;78.35;101349.16;7354783;19;20502;-58
2023/09/06 03:22:52;;;;;;;21.08;12.95;;;;;;;21.25;78.04;101345.47;7357473;19;20010;-59
2023/09/06 03:25:20;;;;;;;22.05;14.02;;;;;;;21.20;78.42;101350.63;7354690;19;20021;-60
2023/09/06 03:27:47;;;;;;;19.08;13.27;;;;;;;21.16;78.35;101350.22;7356020;19;20024;-58
2023/09/06 03:30:15;;;;;;;20.58;13.52;;;;;;;21.08;78.58;101350.41;7350521;19;20141;-56
2023/09/06 03:32:42;;;;;;;21.15;12.57;;;;;;;21.08;79.22;101349.59;7350912;19;20022;-59
2023/09/06 03:35:10;;;;;;;17.45;11.40;;;;;;;21.06;79.60;101344.47;7354447;19;20018;-60
2023/09/06 03:37:41;;;;;;;19.48;12.48;;;;;;;21.05;79.71;101348.16;7351880;19;20014;-59
2023/09/06 03:42:47;;;;;;;18.10;12.50;;;;;;;21.07;79.20;101351.47;7355111;19;20649;-58
2023/09/06 03:45:21;;;;;;;18.48;11.63;;;;;;;21.08;78.95;101344.25;7357183;19;20015;-58
2023/09/06 03:47:48;;;;;;;19.60;12.50;;;;;;;21.07;79.14;101345.28;7352230;19;20019;-58
2023/09/06 03:50:16;;;;;;;22.67;12.07;;;;;;;21.08;78.57;101349.59;7353662;19;20101;-59
2023/09/06 03:52:43;;;;;;;21.13;12.25;;;;;;;21.04;79.37;101346.50;7351963;19;20019;-58
2023/09/06 03:55:11;;;;;;;19.05;11.65;;;;;;;21.04;79.80;101348.34;7346192;19;20010;-57
2023/09/06 03:57:38;;;;;;;15.63;10.98;;;;;;;21.03;79.61;101352.88;7354416;19;20770;-59
2023/09/06 04:02:45;;;;;;;19.65;13.02;;;;;;;21.02;79.86;101348.59;7357059;19;20022;-58
2023/09/06 04:05:13;;;;;;;20.52;12.18;;;;;;;21.00;79.42;101353.31;7351412;19;20014;-59
2023/09/06 04:07:40;;;;;;;18.45;11.73;;;;;;;20.98;79.34;101352.69;7352030;19;20093;-58
2023/09/06 04:10:16;;;;;;;21.02;12.45;;;;;;;20.98;79.42;101359.91;7358737;19;20123;-59
2023/09/06 04:12:43;;;;;;;21.88;13.00;;;;;;;20.98;79.56;101363.38;7356916;19;20007;-59
2023/09/06 04:15:14;;;;;;;18.13;11.02;;;;;;;20.95;80.03;101361.16;7359011;19;20025;-59
2023/09/06 04:17:41;;;;;;;16.85;11.15;;;;;;;20.95;80.07;101369.16;7361772;19;20010;-59
2023/09/06 04:20:19;;;;;;;18.30;11.98;;;;;;;20.96;81.64;101359.28;7354503;19;20026;-58
2023/09/06 04:22:47;;;;;;;18.63;11.93;;;;;;;20.98;80.68;101365.28;7361273;19;20006;-58
2023/09/06 04:27:45;;;;;;;17.20;10.90;;;;;;;20.94;80.22;101367.53;7360848;19;20022;-60
2023/09/06 04:30:13;;;;;;;18.45;11.38;;;;;;;20.91;80.69;101370.63;7359334;19;20021;-58
2023/09/06 04:32:40;;;;;;;18.45;10.90;;;;;;;20.89;80.34;101370.00;7355359;19;20541;-59
2023/09/06 04:35:08;;;;;;;20.30;12.07;;;;;;;20.88;80.40;101376.38;7356994;19;20022;-59
2023/09/06 04:37:36;;;;;;;19.23;11.43;;;;;;;20.86;80.23;101379.28;7356142;19;21273;-57
2023/09/06 04:40:04;;;;;;;19.63;11.23;;;;;;;20.86;81.13;101368.56;7361070;19;20025;-59
2023/09/06 04:42:32;;;;;;;19.85;12.55;;;;;;;20.85;80.74;101374.13;7360968;19;20011;-58
2023/09/06 04:44:59;;;;;;;20.85;11.40;;;;;;;20.84;80.63;101384.00;7360410;19;20084;-59
2023/09/06 04:47:26;;;;;;;17.77;11.90;;;;;;;20.84;81.05;101386.66;7357668;19;20716;-59
2023/09/06 04:49:54;;;;;;;18.08;11.65;;;;;;;20.83;80.83;101385.03;7358305;19;20022;-58
2023/09/06 04:52:20;;;;;;;19.60;12.60;;;;;;;20.84;80.35;101375.97;7358539;19;20018;-60
2023/09/06 04:54:47;;;;;;;21.20;13.05;;;;;;;20.82;79.70;101372.69;7354632;19;20845;-58
2023/09/06 04:57:16;;;;;;;20.77;12.75;;;;;;;20.81;80.29;101388.94;7358103;19;20022;-59
2023/09/06 04:59:44;;;;;;;21.13;12.65;;;;;;;20.77;80.81;101388.53;7356394;19;20014;-59
2023/09/06 05:02:11;;;;;;;20.40;13.23;;;;;;;20.74;81.27;101388.09;7359766;19;20487;-59
2023/09/06 05:04:39;;;;;;;20.48;13.07;;;;;;;20.71;81.71;101389.34;7361207;19;20094;-59
2023/09/06 05:07:06;;;;;;;21.70;12.60;;;;;;;20.71;81.15;101384.00;7362288;19;20093;-59
2023/09/06 05:09:34;;;;;;;18.60;12.85;;;;;;;20.72;80.61;101388.34;7361094;19;20494;-57
2023/09/06 05:12:03;;;;;;;19.00;12.20;;;;;;;20.70;80.48;101382.34;7352571;19;20010;-59
2023/09/06 05:14:32;;;;;;;22.13;12.52;;;;;;;20.69;80.98;101375.34;7361410;19;21848;-59
2023/09/06 05:16:59;;;;;;;20.15;12.32;;;;;;;20.68;81.50;101383.56;7358889;19;20018;-57
2023/09/06 05:19:27;;;;;;;20.17;13.00;;;;;;;20.69;81.38;101378.03;7357184;19;20014;-58
2023/09/06 05:21:55;;;;;;;21.25;12.95;;;;;;;20.70;81.07;101379.69;7356000;19;20639;-61
2023/09/06 05:24:22;;;;;;;18.70;12.63;;;;;;;20.71;81.20;101384.00;7359941;19;20850;-59
2023/09/06 05:26:49;;;;;;;20.90;12.68;;;;;;;20.73;81.69;101384.59;7360874;19;20015;-58
2023/09/06 05:29:18;;;;;;;20.58;12.90;;;;;;;20.74;81.79;101383.59;7358447;19;20010;-59
2023/09/06 05:31:44;;;;;;;22.55;13.43;;;;;;;20.78;81.60;101390.16;7358604;19;20019;-57
2023/09/06 05:34:11;;;;;;;19.27;12.45;;;;;;;20.78;81.56;101392.00;7356670;19;21872;-57
2023/09/06 05:36:38;;;;;;;17.73;12.20;;;;;;;20.82;81.25;101394.09;7355856;19;20117;-58
2023/09/06 05:39:06;;;;;;;19.35;11.65;;;;;;;20.85;81.27;101395.53;7356848;19;20010;-59
2023/09/06 05:41:33;;;;;;;21.80;13.07;;;;;;;20.86;80.69;101389.97;7359177;19;20044;-60
2023/09/06 05:44:01;;;;;;;22.80;13.23;;;;;;;20.91;80.23;101398.22;7358128;19;20540;-62
2023/09/06 05:46:28;;;;;;;20.33;12.35;;;;;;;20.92;80.14;101394.50;7358512;19;20014;-59
2023/09/06 05:48:59;;;;;;;19.13;13.07;;;;;;;20.92;80.25;101394.50;7356957;19;20010;-63
2023/09/06 05:51:27;;;;;;;21.35;12.88;;;;;;;20.93;80.59;101395.31;7356042;19;20014;-58
2023/09/06 05:53:54;;;;;;;22.02;13.63;;;;;;;20.93;80.72;101408.69;7357536;19;20045;-59
2023/09/06 05:56:22;;;;;;;19.92;12.70;;;;;;;20.94;81.40;101415.69;7353251;19;20083;-60
2023/09/06 05:58:49;;;;;;;21.10;13.23;;;;;;;20.92;80.77;101415.91;7356028;19;20015;-60
2023/09/06 06:01:17;;;;;;;19.83;12.88;;;;;;;20.94;81.15;101421.03;7355229;19;20500;-59
2023/09/06 06:03:45;;;;;;;24.52;13.25;;;;;;;20.94;81.11;101413.00;7357528;19;20018;-57
2023/09/06 06:06:16;;;;;;;20.77;12.65;;;;;;;20.95;80.96;101422.69;7356763;19;20034;-60
2023/09/06 06:08:43;;;;;;;18.52;12.30;;;;;;;20.95;80.95;101417.34;7360315;19;20105;-59
2023/09/06 06:11:11;;;;;;;19.30;12.68;;;;;;;20.96;81.06;101424.34;7354698;19;20026;-58
2023/09/06 06:13:39;;;;;;;19.55;12.05;;;;;;;20.97;80.95;101427.84;7357543;19;20022;-60
2023/09/06 06:16:08;;;;;;;23.67;12.60;;;;;;;20.98;80.63;101432.19;7353144;19;20023;-58
2023/09/06 06:18:34;;;;;;;19.63;13.13;;;;;;;21.00;79.30;101435.44;7356394;19;20015;-61
2023/09/06 06:21:02;;;;;;;21.63;12.23;;;;;;;20.99;79.90;101428.44;7356189;19;20276;-56
2023/09/06 06:23:30;;;;;;;21.60;11.85;;;;;;;20.99;80.17;101426.59;7355653;19;20381;-59
2023/09/06 06:25:57;;;;;;;20.42;12.48;;;;;;;20.97;80.07;101431.34;7356775;19;20187;-59
2023/09/06 06:28:25;;;;;;;21.48;12.50;;;;;;;20.98;80.22;101426.81;7360245;19;20483;-60
2023/09/06 06:30:52;;;;;;;21.17;12.63;;;;;;;20.97;80.17;101430.53;7356355;19;20026;-59
2023/09/06 06:33:19;;;;;;;18.30;12.35;;;;;;;20.97;80.42;101434.03;7353908;19;20014;-60
2023/09/06 06:35:47;;;;;;;20.13;12.20;;;;;;;21.00;79.85;101444.31;7351705;19;20034;-59
2023/09/06 06:38:14;;;;;;;21.88;12.50;;;;;;;21.02;79.88;101439.59;7358426;19;20010;-60
2023/09/06 06:40:42;;;;;;;21.80;12.60;;;;;;;21.02;80.14;101444.13;7355023;19;20018;-58
2023/09/06 06:43:09;;;;;;;18.42;11.75;;;;;;;21.03;80.32;101437.72;7357280;19;20018;-58
2023/09/06 06:45:37;;;;;;;22.05;13.20;;;;;;;21.05;79.66;101436.47;7360184;19;20011;-59
2023/09/06 06:48:04;;;;;;;21.13;11.95;;;;;;;21.09;78.95;101439.56;7354722;19;20033;-58
2023/09/06 06:50:32;;;;;;;19.95;12.57;;;;;;;21.09;78.42;101439.56;7355729;19;20015;-58
2023/09/06 06:53:00;;;;;;;20.92;13.27;;;;;;;21.07;78.34;101442.47;7354165;19;20015;-58
2023/09/06 06:55:28;;;;;;;21.85;13.05;;;;;;;21.05;78.66;101438.34;7354776;19;20010;-58
2023/09/06 06:57:56;;;;;;;24.88;13.73;;;;;;;21.04;78.93;101447.38;7352267;19;21672;-59
2023/09/06 07:00:23;;;;;;;21.75;13.35;;;;;;;21.06;80.06;101450.69;7354530;19;20006;-58
2023/09/06 07:02:51;;;;;;;22.10;12.57;;;;;;;21.09;80.61;101448.41;7356183;19;20020;-59
2023/09/06 07:05:18;;;;;;;21.88;12.98;;;;;;;21.13;79.81;101451.53;7355932;19;20039;-59
2023/09/06 07:07:46;;;;;;;23.45;13.48;;;;;;;21.14;79.40;101456.69;7355129;19;20661;-58
2023/09/06 07:10:14;;;;;;;22.92;13.43;;;;;;;21.21;80.17;101456.69;7354080;19;20039;-59
2023/09/06 07:12:42;;;;;;;21.17;13.90;;;;;;;21.23;78.92;101462.69;7356929;19;20007;-56
2023/09/06 07:15:10;;;;;;;21.80;13.38;;;;;;;21.27;78.77;101459.38;7353593;19;20275;-56
2023/09/06 07:17:38;;;;;;;23.27;13.70;;;;;;;21.29;78.73;101457.28;7351645;19;20022;-57
2023/09/06 07:20:07;;;;;;;20.20;13.80;;;;;;;21.34;79.22;101454.00;7356577;19;20562;-61
2023/09/06 07:22:35;;;;;;;21.10;13.15;;;;;;;21.38;79.09;101467.81;7355835;19;20827;-58
2023/09/06 07:25:04;;;;;;;24.23;14.07;;;;;;;21.39;78.28;101456.88;7348262;19;20048;-59
2023/09/06 07:27:32;;;;;;;20.05;13.23;;;;;;;21.43;78.57;101458.13;7338983;19;20015;-60
2023/09/06 07:29:59;;;;;;;20.80;13.23;;;;;;;21.44;78.33;101457.06;7351398;19;20015;-59
2023/09/06 07:32:26;;;;;;;24.63;14.10;;;;;;;21.48;78.32;101466.34;7352833;19;21028;-58
2023/09/06 07:34:54;;;;;;;21.45;14.32;;;;;;;21.48;78.87;101468.22;7350903;19;20046;-59
2023/09/06 07:37:21;;;;;;;21.75;14.07;;;;;;;21.49;78.42;101472.50;7352692;19;20014;-60
2023/09/06 07:39:49;;;;;;;26.17;15.25;;;;;;;21.49;77.99;101465.28;7346496;19;20483;-58
2023/09/06 07:42:16;;;;;;;25.38;14.73;;;;;;;21.51;77.83;101468.59;7351466;19;20572;-63
2023/09/06 07:44:44;;;;;;;25.85;15.10;;;;;;;21.54;78.16;101470.84;7362066;19;20034;-60
2023/09/06 07:47:20;;;;;;;23.33;14.00;;;;;;;21.55;78.97;101474.34;7361723;19;20609;-60
2023/09/06 07:49:48;;;;;;;23.23;13.90;;;;;;;21.58;78.85;101482.00;7359689;19;21001;-60
2023/09/06 07:52:20;;;;;;;26.58;14.10;;;;;;;21.63;77.89;101485.69;7361716;19;20752;-58
2023/09/06 07:54:54;;;;;;;24.60;13.23;;;;;;;21.66;77.40;101485.25;7361024;19;20026;-59
2023/09/06 07:57:21;;;;;;;23.23;13.73;;;;;;;21.66;78.06;101492.47;7363254;19;20018;-59
2023/09/06 07:59:57;;;;;;;26.42;13.85;;;;;;;21.71;77.55;101495.34;7361901;19;20010;-59
2023/09/06 08:02:34;;;;;;;23.90;14.02;;;;;;;21.75;76.80;101497.41;7359427;19;20039;-60
2023/09/06 08:05:11;;;;;;;23.33;13.88;;;;;;;21.74;77.03;101493.06;7356845;19;20093;-59
2023/09/06 08:07:39;;;;;;;24.30;13.10;;;;;;;21.74;77.16;101497.59;7360785;19;20022;-60
2023/09/06 08:10:13;;;;;;;21.13;13.65;;;;;;;21.79;77.14;101499.69;7356692;19;20046;-59
2023/09/06 08:12:43;;;;;;;;;;;;;;;21.83;76.75;101507.09;7360485;19;20010;-59
2023/09/06 08:15:13;;;;;;;29.08;13.40;;;;;;;21.81;77.51;101506.47;7358222;19;19925;-61
2023/09/06 08:17:48;;;;;;;24.98;13.60;;;;;;;21.88;77.19;101509.13;7354800;19;20025;-59
2023/09/06 08:20:17;;;;;;;25.15;14.02;;;;;;;21.88;77.59;101511.81;7357824;19;20034;-57
2023/09/06 08:22:45;;;;;;;25.17;15.13;;;;;;;21.90;77.63;101510.56;7357398;19;20404;-57
2023/09/06 08:25:24;;;;;;;24.13;15.38;;;;;;;21.90;77.43;101510.56;7362953;19;20090;-61
2023/09/06 08:27:51;;;;;;;27.73;15.57;;;;;;;21.90;77.68;101507.03;7360951;19;20082;-60
2023/09/06 08:30:22;;;;;;;24.67;15.20;;;;;;;21.92;78.40;101516.53;7360896;19;20052;-60
2023/09/06 08:33:05;;;;;;;24.80;13.85;;;;;;;21.95;79.09;101518.81;7357427;19;20020;-57
2023/09/06 08:35:38;;;;;;;26.95;14.65;;;;;;;22.00;78.31;101512.81;7361606;19;20025;-59
2023/09/06 08:38:07;;;;;;;51.25;19.40;;;;;;;22.07;77.98;101519.81;7359448;19;20467;-59
2023/09/06 08:40:38;;;;;;;;;;;;;;;22.10;77.81;101524.75;7362281;19;20018;-57
2023/09/06 08:43:09;;;;;;;29.42;15.05;;;;;;;22.13;77.85;101527.03;7362400;19;19911;-59
2023/09/06 08:45:41;;;;;;;26.40;14.73;;;;;;;22.18;77.75;101531.75;7360857;19;20010;-59
2023/09/06 08:48:10;;;;;;;37.00;17.07;;;;;;;22.28;76.74;101525.94;7360041;19;20924;-58
2023/09/06 08:50:38;;;;;;;28.58;15.10;;;;;;;22.36;76.25;101531.06;7360454;19;20018;-59
2023/09/06 08:53:15;;;;;;;24.30;14.25;;;;;;;22.41;77.08;101524.00;7360341;19;20102;-60
2023/09/06 08:55:55;;;;;;;21.75;12.98;;;;;;;22.46;77.04;101526.06;7356555;19;20508;-59
2023/09/06 08:58:26;;;;;;;21.52;12.43;;;;;;;22.50;76.86;101520.03;7360450;19;20081;-59
2023/09/06 09:00:55;;;;;;;27.02;13.95;;;;;;;22.56;76.99;101529.91;7356984;19;20574;-58
2023/09/06 09:03:23;;;;;;;24.95;12.98;;;;;;;22.65;75.74;101530.50;7356519;19;20019;-57
2023/09/06 09:05:50;;;;;;;18.95;12.07;;;;;;;22.69;76.36;101531.72;7361302;19;21053;-60
2023/09/06 09:08:18;;;;;;;24.90;11.55;;;;;;;22.75;76.83;101535.44;7359252;19;20046;-57
2023/09/06 09:11:08;;;;;;;22.70;12.52;;;;;;;22.81;75.66;101526.50;7360470;19;20029;-55
2023/09/06 09:13:36;;;;;;;20.67;11.25;;;;;;;22.87;75.90;101531.00;7358752;19;20022;-59
2023/09/06 09:16:17;;;;;;;18.02;10.57;;;;;;;22.93;76.57;101525.59;7358118;19;20021;-59
2023/09/06 09:18:45;;;;;;;21.20;11.50;;;;;;;22.99;75.83;101524.75;7359164;19;20042;-59
2023/09/06 09:21:13;;;;;;;18.50;11.07;;;;;;;23.05;74.58;101522.22;7353837;19;20597;-58
2023/09/06 09:23:47;;;;;;;17.25;10.93;;;;;;;23.10;74.01;101517.03;7358395;19;20022;-59
2023/09/06 09:26:19;;;;;;;19.63;10.57;;;;;;;23.15;73.76;101517.19;7356384;19;20014;-56
2023/09/06 09:28:47;;;;;;;;;;;;;;;23.20;73.48;101515.50;7360989;19;20841;-58
2023/09/06 09:31:16;;;;;;;18.08;11.02;;;;;;;23.27;72.60;101516.25;7359125;19;19941;-59
2023/09/06 09:33:49;;;;;;;19.77;10.65;;;;;;;23.31;73.15;101512.13;7358756;19;20091;-58
2023/09/06 09:36:18;;;;;;;20.25;11.25;;;;;;;23.34;72.82;101508.97;7356916;19;20017;-60
2023/09/06 09:38:50;;;;;;;29.23;10.35;;;;;;;23.41;72.34;101500.88;7356542;19;20098;-56
2023/09/06 09:41:18;;;;;;;29.95;10.50;;;;;;;23.46;71.89;101517.19;7357049;19;20018;-61
2023/09/06 09:43:45;;;;;;;18.63;8.88;;;;;;;23.53;71.90;101512.53;7362009;19;20018;-61
2023/09/06 09:46:26;;;;;;;35.03;11.60;;;;;;;23.59;71.79;101506.28;7360488;19;20036;-58
2023/09/06 09:48:59;;;;;;;20.38;9.25;;;;;;;23.63;71.62;101504.81;7349984;19;20052;-59
2023/09/06 09:51:27;;;;;;;;;;;;;;;23.68;70.56;101509.50;7339379;19;20057;-59
2023/09/06 09:53:53;;;;;;;17.63;9.88;;;;;;;23.85;69.33;101511.41;7355021;19;19922;-61
2023/09/06 09:56:25;;;;;;;18.42;9.43;;;;;;;23.85;69.90;101513.25;7334931;19;20014;-58
2023/09/06 09:58:55;;;;;;;12.95;8.38;;;;;;;23.90;70.08;101513.41;7353978;19;20435;-59
2023/09/06 10:01:22;;;;;;;14.10;9.02;;;;;;;23.96;70.70;101514.38;7355949;19;20090;-58
2023/09/06 10:03:55;;;;;;;15.57;8.90;;;;;;;24.00;70.25;101500.28;7352408;19;20865;-55
2023/09/06 10:06:26;;;;;;;31.00;10.43;;;;;;;24.07;70.26;101511.78;7351110;19;20029;-58
2023/09/06 10:08:57;;;;;;;17.20;9.80;;;;;;;24.11;70.38;101507.59;7354979;19;20014;-59
2023/09/06 10:11:29;;;;;;;14.32;8.43;;;;;;;24.18;70.45;101508.34;7354696;19;20533;-59
2023/09/06 10:14:07;;;;;;;15.65;9.18;;;;;;;24.25;70.05;101508.28;7351751;19;20007;-55
2023/09/06 10:16:40;;;;;;;16.33;7.95;;;;;;;24.29;69.91;101504.06;7351302;19;20098;-58
2023/09/06 10:22:18;;;;;;;18.83;7.80;;;;;;;24.45;70.04;101508.00;7351660;19;20704;-60
2023/09/06 10:24:52;;;;;;;16.42;8.20;;;;;;;24.49;70.10;101510.00;7351990;19;20014;-56
2023/09/06 10:27:19;;;;;;;14.60;9.75;;;;;;;24.54;70.51;101515.53;7355837;19;20021;-58
2023/09/06 10:29:52;;;;;;;13.77;7.82;;;;;;;24.60;70.66;101503.03;7356111;19;20446;-58
2023/09/06 10:32:41;;;;;;;18.02;8.52;;;;;;;24.68;70.39;101511.63;7354084;19;20654;-61
2023/09/06 10:35:15;;;;;;;15.20;7.95;;;;;;;24.69;70.80;101499.78;7354897;19;20010;-58
2023/09/06 10:37:49;;;;;;;17.25;8.48;;;;;;;24.76;70.58;101505.09;7354019;19;20568;-59
2023/09/06 10:40:18;;;;;;;57.03;13.15;;;;;;;24.80;70.77;101502.75;7357784;19;20773;-60
2023/09/06 10:42:46;;;;;;;85.25;17.92;;;;;;;24.84;70.66;101499.38;7356214;19;20018;-59
2023/09/06 10:45:14;;;;;;;32.33;10.43;;;;;;;24.90;70.38;101498.47;7358369;19;20014;-59
2023/09/06 10:47:42;;;;;;;19.27;8.57;;;;;;;24.94;70.35;101499.66;7354004;19;20011;-60
2023/09/06 10:50:12;;;;;;;23.48;8.90;;;;;;;25.00;70.29;101498.72;7353526;19;20078;-57
2023/09/06 10:52:41;;;;;;;15.55;8.90;;;;;;;25.05;69.54;101492.66;7350731;19;20431;-59
2023/09/06 10:55:16;;;;;;;14.95;8.75;;;;;;;25.10;69.32;101492.78;7352206;19;20045;-59
2023/09/06 10:57:52;;;;;;;17.42;9.38;;;;;;;25.15;69.08;101492.91;7354624;19;20049;-59
2023/09/06 11:00:25;;;;;;;16.83;9.02;;;;;;;25.20;69.38;101489.50;7355659;19;20009;-58
2023/09/06 11:02:59;;;;;;;13.57;7.80;;;;;;;25.28;69.43;101489.16;7353635;19;20027;-59
2023/09/06 11:05:31;;;;;;;26.25;8.63;;;;;;;25.34;69.60;101491.75;7353786;19;20018;-60
2023/09/06 11:08:00;;;;;;;17.60;8.63;;;;;;;25.40;69.28;101485.41;7342180;19;21196;-59
2023/09/06 11:10:31;;;;;;;15.23;9.38;;;;;;;25.44;68.72;101483.91;7356774;19;20018;-57
2023/09/06 11:13:09;;;;;;;13.82;8.77;;;;;;;25.51;67.88;101481.91;7345648;19;20086;-59
2023/09/06 11:15:39;;;;;;;13.32;8.45;;;;;;;25.55;68.49;101477.69;7352787;19;20815;-60
2023/09/06 11:18:09;;;;;;;14.25;7.90;;;;;;;25.60;69.11;101474.28;7353081;19;20018;-60
2023/09/06 11:20:37;;;;;;;13.63;7.78;;;;;;;25.65;68.90;101474.41;7360427;19;20464;-60
2023/09/06 11:23:05;;;;;;;16.30;8.40;;;;;;;25.70;68.28;101466.44;7355516;19;20014;-60
2023/09/06 11:25:32;;;;;;;14.95;7.88;;;;;;;25.75;68.10;101474.63;7358776;19;20094;-58
2023/09/06 11:28:14;;;;;;;12.20;6.88;;;;;;;25.80;68.16;101474.72;7362045;19;20452;-58
2023/09/06 11:30:44;;;;;;;13.80;7.30;;;;;;;25.88;68.64;101477.06;7360895;19;20082;-59
2023/09/06 11:33:12;;;;;;;13.77;6.45;;;;;;;25.96;68.36;101473.19;7359585;19;20450;-59
2023/09/06 11:35:51;;;;;;;13.48;6.97;;;;;;;26.03;68.56;101478.44;7356015;19;20963;-61
2023/09/06 11:38:24;;;;;;;13.38;7.32;;;;;;;26.08;68.01;101481.25;7351634;19;20105;-61
2023/09/06 11:40:53;;;;;;;17.40;7.45;;;;;;;26.14;67.81;101472.19;7355495;19;20011;-59
2023/09/06 11:43:23;;;;;;;13.75;7.38;;;;;;;26.17;67.73;101469.84;7355583;19;20857;-59
2023/09/06 11:45:53;;;;;;;13.63;7.82;;;;;;;26.21;66.99;101464.78;7362861;19;20018;-57